createdAt,value
2023-02-11T00:00:45.880Z,19.53
2023-02-11T00:03:13.195Z,19.20
2023-02-11T00:05:40.741Z,19.27
2023-02-11T00:08:08.061Z,19.73
2023-02-11T00:10:35.293Z,18.57
2023-02-11T00:13:02.565Z,20.33
2023-02-11T00:15:29.799Z,20.07
2023-02-11T00:17:59.106Z,18.10
2023-02-11T00:20:26.387Z,18.37
2023-02-11T00:22:53.643Z,19.03
2023-02-11T00:25:21.343Z,19.23
2023-02-11T00:27:48.856Z,18.90
2023-02-11T00:30:16.559Z,19.13
2023-02-11T00:32:43.745Z,18.77
2023-02-11T00:35:11.045Z,18.83
2023-02-11T00:37:38.314Z,19.60
2023-02-11T00:40:06.868Z,18.47
2023-02-11T00:42:35.733Z,18.47
2023-02-11T00:45:03.628Z,18.47
2023-02-11T00:47:30.806Z,19.07
2023-02-11T00:49:57.984Z,18.13
2023-02-11T00:52:25.194Z,19.17
2023-02-11T00:54:52.396Z,19.47
2023-02-11T00:57:19.556Z,18.73
2023-02-11T00:59:46.857Z,18.33
2023-02-11T01:02:14.076Z,19.60
2023-02-11T01:04:41.278Z,19.00
2023-02-11T01:07:08.671Z,19.00
2023-02-11T01:09:38.896Z,18.83
2023-02-11T01:12:06.310Z,17.13
2023-02-11T01:14:33.719Z,19.47
2023-02-11T01:17:00.982Z,18.73
2023-02-11T01:19:28.206Z,19.07
2023-02-11T01:21:55.385Z,19.10
2023-02-11T01:24:22.573Z,19.13
2023-02-11T01:26:52.775Z,19.63
2023-02-11T01:29:20.326Z,19.17
2023-02-11T01:31:47.642Z,19.50
2023-02-11T01:34:15.226Z,17.93
2023-02-11T01:36:42.495Z,19.27
2023-02-11T01:39:09.758Z,18.87
2023-02-11T01:41:37.383Z,19.93
2023-02-11T01:44:43.361Z,18.33
2023-02-11T01:47:10.864Z,19.40
2023-02-11T01:49:43.708Z,19.90
2023-02-11T01:52:13.740Z,18.07
2023-02-11T01:55:01.367Z,19.97
2023-02-11T01:57:31.478Z,19.13
2023-02-11T02:00:14.272Z,19.87
2023-02-11T02:02:45.201Z,20.53
2023-02-11T02:05:18.433Z,19.97
2023-02-11T02:07:52.197Z,20.73
2023-02-11T02:10:21.484Z,19.83
2023-02-11T02:12:48.806Z,23.90
2023-02-11T02:15:26.790Z,23.87
2023-02-11T02:18:08.017Z,19.53
2023-02-11T02:21:04.287Z,18.97
2023-02-11T02:23:34.447Z,18.47
2023-02-11T02:26:20.566Z,19.23
2023-02-11T02:28:57.972Z,19.80
2023-02-11T02:31:25.236Z,21.00
2023-02-11T02:34:08.355Z,19.83
2023-02-11T02:36:38.975Z,19.30
2023-02-11T02:39:32.206Z,19.70
2023-02-11T02:41:59.590Z,19.50
2023-02-11T02:44:27.051Z,19.97
2023-02-11T02:46:54.384Z,19.93
2023-02-11T02:49:21.702Z,21.87
2023-02-11T02:52:07.614Z,20.93
2023-02-11T02:54:50.062Z,20.17
2023-02-11T02:57:30.032Z,20.67
2023-02-11T03:00:00.294Z,19.97
2023-02-11T03:02:46.166Z,20.10
2023-02-11T03:05:28.497Z,20.23
2023-02-11T03:08:24.926Z,19.00
2023-02-11T03:10:52.976Z,20.20
2023-02-11T03:13:22.459Z,19.83
2023-02-11T03:15:52.013Z,19.57
2023-02-11T03:18:20.587Z,20.47
2023-02-11T03:20:49.841Z,19.80
2023-02-11T03:23:26.294Z,19.00
2023-02-11T03:26:02.968Z,19.40
2023-02-11T03:28:35.251Z,20.20
2023-02-11T03:31:11.690Z,20.63
2023-02-11T03:33:58.113Z,20.30
2023-02-11T03:36:31.502Z,21.43
2023-02-11T03:39:00.973Z,20.20
2023-02-11T03:41:28.445Z,21.63
2023-02-11T03:43:57.711Z,20.10
2023-02-11T03:46:28.831Z,19.67
2023-02-11T03:49:04.582Z,20.70
2023-02-11T03:51:33.275Z,21.67
2023-02-11T03:54:02.659Z,20.93
2023-02-11T03:56:31.832Z,21.03
2023-02-11T03:58:59.198Z,21.57
2023-02-11T04:01:26.480Z,20.50
2023-02-11T04:03:53.833Z,20.00
2023-02-11T04:06:21.063Z,21.23
2023-02-11T04:08:48.273Z,19.90
2023-02-11T04:11:15.514Z,20.77
2023-02-11T04:13:42.698Z,24.37
2023-02-11T04:16:09.914Z,22.17
2023-02-11T04:18:37.305Z,22.63
2023-02-11T04:21:04.771Z,23.23
2023-02-11T04:23:32.007Z,21.17
2023-02-11T04:25:59.174Z,21.43
2023-02-11T04:28:29.443Z,22.97
2023-02-11T04:30:57.362Z,20.60
2023-02-11T04:33:24.687Z,21.53
2023-02-11T04:35:52.132Z,22.57
2023-02-11T04:38:19.555Z,21.47
2023-02-11T04:40:46.751Z,21.97
2023-02-11T04:43:13.967Z,21.63
2023-02-11T04:45:41.313Z,25.47
2023-02-11T04:48:08.495Z,23.80
2023-02-11T04:50:35.701Z,23.63
2023-02-11T04:53:02.910Z,21.90
2023-02-11T04:55:30.318Z,21.73
2023-02-11T04:57:57.681Z,21.80
2023-02-11T05:00:24.886Z,23.20
2023-02-11T05:02:52.077Z,22.13
2023-02-11T05:05:19.307Z,22.20
2023-02-11T05:07:46.919Z,22.93
2023-02-11T05:10:14.146Z,23.03
2023-02-11T05:12:41.353Z,23.13
2023-02-11T05:15:08.648Z,23.97
2023-02-11T05:17:35.863Z,23.43
2023-02-11T05:20:03.570Z,22.43
2023-02-11T05:22:30.862Z,23.67
2023-02-11T05:24:58.367Z,23.90
2023-02-11T05:27:25.604Z,23.40
2023-02-11T05:29:53.074Z,22.83
2023-02-11T05:32:20.264Z,22.07
2023-02-11T05:34:47.470Z,22.60
2023-02-11T05:37:14.928Z,24.73
2023-02-11T05:39:42.129Z,23.50
2023-02-11T05:42:09.413Z,23.97
2023-02-11T05:44:36.692Z,23.07
2023-02-11T05:47:04.044Z,23.67
2023-02-11T05:49:31.265Z,22.63
2023-02-11T05:51:58.451Z,24.03
2023-02-11T05:54:25.730Z,24.67
2023-02-11T05:56:53.417Z,24.37
2023-02-11T05:59:20.670Z,24.17
2023-02-11T06:01:47.944Z,24.73
2023-02-11T06:04:15.390Z,24.27
2023-02-11T06:06:42.744Z,24.80
2023-02-11T06:09:11.923Z,25.23
2023-02-11T06:11:39.149Z,26.20
2023-02-11T06:14:06.346Z,24.80
2023-02-11T06:16:33.546Z,25.93
2023-02-11T06:19:00.761Z,25.43
2023-02-11T06:21:40.014Z,24.80
2023-02-11T06:24:10.358Z,25.00
2023-02-11T06:26:37.603Z,25.40
2023-02-11T06:29:04.837Z,26.00
2023-02-11T06:31:32.138Z,25.53
2023-02-11T06:33:59.466Z,25.43
2023-02-11T06:36:26.694Z,26.00
2023-02-11T06:38:53.989Z,24.73
2023-02-11T06:41:21.511Z,26.43
2023-02-11T06:43:49.068Z,24.60
2023-02-11T06:46:16.400Z,26.03
2023-02-11T06:48:44.976Z,27.47
2023-02-11T06:51:13.386Z,25.60
2023-02-11T06:53:42.111Z,27.03
2023-02-11T06:56:10.961Z,26.63
2023-02-11T06:58:38.569Z,27.43
2023-02-11T07:01:06.754Z,27.13
2023-02-11T07:03:36.338Z,26.27
2023-02-11T07:06:05.522Z,26.50
2023-02-11T07:08:36.424Z,27.33
2023-02-11T07:11:09.662Z,26.70
2023-02-11T07:13:37.037Z,27.23
2023-02-11T07:16:05.762Z,27.50
2023-02-11T07:18:33.026Z,26.53
2023-02-11T07:21:00.450Z,26.77
2023-02-11T07:23:27.647Z,28.17
2023-02-11T07:25:54.813Z,27.60
2023-02-11T07:28:22.428Z,26.63
2023-02-11T07:30:49.764Z,28.23
2023-02-11T07:33:16.994Z,26.50
2023-02-11T07:35:44.375Z,27.77
2023-02-11T07:38:14.776Z,26.60
2023-02-11T07:40:41.940Z,25.07
2023-02-11T07:43:09.437Z,27.03
2023-02-11T07:45:39.753Z,25.40
2023-02-11T07:48:07.110Z,27.90
2023-02-11T07:50:34.351Z,26.90
2023-02-11T07:53:01.543Z,27.23
2023-02-11T07:55:29.027Z,26.93
2023-02-11T07:57:56.257Z,24.97
2023-02-11T08:00:23.520Z,26.37
2023-02-11T08:02:51.717Z,26.00
2023-02-11T08:05:19.025Z,26.50
2023-02-11T08:07:46.266Z,27.10
2023-02-11T08:10:13.458Z,27.17
2023-02-11T08:12:40.672Z,26.47
2023-02-11T08:15:08.019Z,25.60
2023-02-11T08:17:36.349Z,26.90
2023-02-11T08:20:04.502Z,26.67
2023-02-11T08:22:35.763Z,27.33
2023-02-11T08:25:03.103Z,27.70
2023-02-11T08:27:30.385Z,27.40
2023-02-11T08:29:59.465Z,27.10
2023-02-11T08:32:26.809Z,28.50
2023-02-11T08:34:54.141Z,27.07
2023-02-11T08:37:21.510Z,26.60
2023-02-11T08:39:49.402Z,26.40
2023-02-11T08:42:16.702Z,26.80
2023-02-11T08:44:44.311Z,26.00
2023-02-11T08:47:12.499Z,26.37
2023-02-11T08:49:41.861Z,27.90
2023-02-11T08:52:09.444Z,26.83
2023-02-11T08:54:37.739Z,26.10
2023-02-11T08:57:05.288Z,26.73
2023-02-11T08:59:32.530Z,26.10
2023-02-11T09:01:59.774Z,26.37
2023-02-11T09:04:26.977Z,24.83
2023-02-11T09:06:54.207Z,26.07
2023-02-11T09:09:21.638Z,26.87
2023-02-11T09:11:48.953Z,27.63
2023-02-11T09:14:18.206Z,26.00
2023-02-11T09:16:45.479Z,27.70
2023-02-11T09:19:12.789Z,27.70
2023-02-11T09:21:40.054Z,27.30
2023-02-11T09:24:07.414Z,27.17
2023-02-11T09:26:35.608Z,26.97
2023-02-11T09:29:04.959Z,26.83
2023-02-11T09:31:33.275Z,27.60
2023-02-11T09:34:04.938Z,26.37
2023-02-11T09:36:37.600Z,26.60
2023-02-11T09:39:05.854Z,27.87
2023-02-11T09:41:51.609Z,26.87
2023-02-11T09:44:20.773Z,27.23
2023-02-11T09:46:50.908Z,26.50
2023-02-11T09:49:20.714Z,25.87
2023-02-11T09:51:55.469Z,25.17
2023-02-11T09:54:27.563Z,26.30
2023-02-11T09:56:54.794Z,25.97
2023-02-11T09:59:22.358Z,26.03
2023-02-11T10:01:58.562Z,26.60
2023-02-11T10:04:25.757Z,25.97
2023-02-11T10:06:54.967Z,27.33
2023-02-11T10:09:45.290Z,25.43
2023-02-11T10:12:15.680Z,25.13
2023-02-11T10:14:51.846Z,25.97
2023-02-11T10:17:37.732Z,23.67
2023-02-11T10:20:23.792Z,24.97
2023-02-11T10:22:56.539Z,24.67
2023-02-11T10:25:23.773Z,26.27
2023-02-11T10:27:51.857Z,25.40
2023-02-11T10:30:22.111Z,23.57
2023-02-11T10:33:12.277Z,24.10
2023-02-11T10:35:39.542Z,25.03
2023-02-11T10:38:06.988Z,26.00
2023-02-11T10:40:34.178Z,25.53
2023-02-11T10:43:08.629Z,30.07
2023-02-11T10:45:54.988Z,25.83
2023-02-11T10:48:39.813Z,26.63
2023-02-11T10:51:16.758Z,23.50
2023-02-11T10:53:44.362Z,25.37
2023-02-11T10:56:13.098Z,25.10
2023-02-11T10:58:48.156Z,25.90
2023-02-11T11:01:24.487Z,25.27
2023-02-11T11:03:52.918Z,24.30
2023-02-11T11:06:30.543Z,25.80
2023-02-11T11:08:57.892Z,25.33
2023-02-11T11:11:25.873Z,24.37
2023-02-11T11:13:53.110Z,23.37
2023-02-11T11:16:23.502Z,24.87
2023-02-11T11:18:52.305Z,22.40
2023-02-11T11:21:22.470Z,23.40
2023-02-11T11:23:51.156Z,22.47
2023-02-11T11:26:18.877Z,22.80
2023-02-11T11:28:54.333Z,23.90
2023-02-11T11:31:23.715Z,22.87
2023-02-11T11:33:52.541Z,23.23
2023-02-11T11:36:24.868Z,28.00
2023-02-11T11:38:56.836Z,25.03
2023-02-11T11:41:28.905Z,22.97
2023-02-11T11:44:04.310Z,23.63
2023-02-11T11:46:37.003Z,25.13
2023-02-11T11:49:08.535Z,22.73
2023-02-11T11:51:37.888Z,22.47
2023-02-11T11:54:07.356Z,23.97
2023-02-11T11:56:35.621Z,22.57
2023-02-11T11:59:04.258Z,22.90
2023-02-11T12:01:46.131Z,22.73
2023-02-11T12:04:28.735Z,21.50
2023-02-11T12:07:14.526Z,20.87
2023-02-11T12:10:14.748Z,21.90
2023-02-11T12:12:50.888Z,22.50
2023-02-11T12:15:20.979Z,23.80
2023-02-11T12:18:01.968Z,22.17
2023-02-11T12:20:40.553Z,20.57
2023-02-11T12:23:16.725Z,19.90
2023-02-11T12:26:01.147Z,20.60
2023-02-11T12:28:31.465Z,19.17
2023-02-11T12:31:04.672Z,19.63
2023-02-11T12:33:32.043Z,20.33
2023-02-11T12:36:19.982Z,20.17
2023-02-11T12:39:00.327Z,19.13
2023-02-11T12:41:46.203Z,21.07
2023-02-11T12:44:19.782Z,19.87
2023-02-11T12:47:08.118Z,18.23
2023-02-11T12:49:54.024Z,19.37
2023-02-11T12:52:34.501Z,19.73
2023-02-11T12:55:04.453Z,19.67
2023-02-11T12:57:35.479Z,19.83
2023-02-11T13:00:08.458Z,17.63
2023-02-11T13:02:41.266Z,18.77
2023-02-11T13:05:22.996Z,19.63
2023-02-11T13:07:51.804Z,19.63
2023-02-11T13:10:25.983Z,18.77
2023-02-11T13:13:13.728Z,18.30
2023-02-11T13:15:41.872Z,17.67
2023-02-11T13:18:12.142Z,17.83
2023-02-11T13:20:46.625Z,17.90
2023-02-11T13:23:16.846Z,17.50
2023-02-11T13:25:49.064Z,18.30
2023-02-11T13:28:21.444Z,16.87
2023-02-11T13:30:57.429Z,18.10
2023-02-11T13:33:35.422Z,16.90
2023-02-11T13:36:04.652Z,16.83
2023-02-11T13:38:32.719Z,16.30
2023-02-11T13:41:03.187Z,15.67
2023-02-11T13:43:31.458Z,16.53
2023-02-11T13:46:12.810Z,15.80
2023-02-11T13:48:46.473Z,15.20
2023-02-11T13:51:15.500Z,16.83
2023-02-11T13:53:48.986Z,15.43
2023-02-11T13:56:32.960Z,14.80
2023-02-11T13:59:02.374Z,12.83
2023-02-11T14:01:44.929Z,14.23
2023-02-11T14:04:39.623Z,13.50
2023-02-11T14:07:51.461Z,14.23
2023-02-11T14:10:37.408Z,14.23
2023-02-11T14:13:20.512Z,14.43
2023-02-11T14:15:47.928Z,14.30
2023-02-11T14:18:34.070Z,14.93
2023-02-11T14:21:15.201Z,13.17
2023-02-11T14:23:42.748Z,13.80
2023-02-11T14:26:30.227Z,15.03
2023-02-11T14:28:57.408Z,13.83
2023-02-11T14:31:27.184Z,14.57
2023-02-11T14:33:54.487Z,15.33
2023-02-11T14:36:21.675Z,14.73
2023-02-11T14:38:48.862Z,14.73
2023-02-11T14:41:21.844Z,14.17
2023-02-11T14:43:53.559Z,15.97
2023-02-11T14:46:21.925Z,14.10
2023-02-11T14:48:50.930Z,15.57
2023-02-11T14:51:23.700Z,14.30
2023-02-11T14:53:51.643Z,14.03
2023-02-11T14:56:21.314Z,14.10
2023-02-11T14:58:49.713Z,14.20
2023-02-11T15:01:32.223Z,15.27
2023-02-11T15:04:01.269Z,15.40
2023-02-11T15:06:34.635Z,14.30
2023-02-11T15:09:04.769Z,14.37
2023-02-11T15:11:35.200Z,14.83
2023-02-11T15:14:08.645Z,15.13
2023-02-11T15:16:40.558Z,13.63
2023-02-11T15:19:08.588Z,13.37
2023-02-11T15:21:36.844Z,16.47
2023-02-11T15:24:08.769Z,15.27
2023-02-11T15:26:35.966Z,13.40
2023-02-11T15:29:03.256Z,13.60
2023-02-11T15:31:33.211Z,13.97
2023-02-11T15:34:07.784Z,13.47
2023-02-11T15:36:36.427Z,13.83
2023-02-11T15:39:17.118Z,12.33
2023-02-11T15:41:44.648Z,12.77
2023-02-11T15:44:28.148Z,13.57
2023-02-11T15:46:55.492Z,11.90
2023-02-11T15:49:23.258Z,14.37
2023-02-11T15:51:50.709Z,14.40
2023-02-11T15:54:22.235Z,14.43
2023-02-11T15:56:55.449Z,14.37
2023-02-11T15:59:25.973Z,14.83
2023-02-11T16:01:53.832Z,13.13
2023-02-11T16:04:29.975Z,12.90
2023-02-11T16:06:57.252Z,12.27
2023-02-11T16:09:24.557Z,11.90
2023-02-11T16:11:51.764Z,13.83
2023-02-11T16:14:39.428Z,13.27
2023-02-11T16:17:06.675Z,11.40
2023-02-11T16:19:34.929Z,12.23
2023-02-11T16:22:08.542Z,11.40
2023-02-11T16:24:37.183Z,12.33
2023-02-11T16:27:05.590Z,12.47
2023-02-11T16:29:35.301Z,12.77
2023-02-11T16:32:14.486Z,12.77
2023-02-11T16:34:41.809Z,11.93
2023-02-11T16:37:09.192Z,11.37
2023-02-11T16:39:36.630Z,11.93
2023-02-11T16:42:07.107Z,11.60
2023-02-11T16:44:34.903Z,11.07
2023-02-11T16:47:06.040Z,11.57
2023-02-11T16:49:42.336Z,11.20
2023-02-11T16:52:14.240Z,12.40
2023-02-11T16:54:41.513Z,11.17
2023-02-11T16:57:16.857Z,11.93
2023-02-11T16:59:44.557Z,13.90
2023-02-11T17:02:23.915Z,13.80
2023-02-11T17:04:51.862Z,12.77
2023-02-11T17:07:19.063Z,11.07
2023-02-11T17:09:46.296Z,11.70
2023-02-11T17:12:13.493Z,11.57
2023-02-11T17:14:40.783Z,14.43
2023-02-11T17:17:08.160Z,22.90
2023-02-11T17:19:35.442Z,19.63
2023-02-11T17:22:02.771Z,18.80
2023-02-11T17:24:30.061Z,16.40
2023-02-11T17:26:57.405Z,17.50
2023-02-11T17:29:25.210Z,14.53
2023-02-11T17:31:52.932Z,15.63
2023-02-11T17:34:20.744Z,13.33
2023-02-11T17:36:48.201Z,14.37
2023-02-11T17:39:15.978Z,12.70
2023-02-11T17:41:43.252Z,11.10
2023-02-11T17:44:12.562Z,9.60
2023-02-11T17:46:39.894Z,10.43
2023-02-11T17:49:07.173Z,10.93
2023-02-11T17:51:38.720Z,10.27
2023-02-11T17:54:07.824Z,9.97
2023-02-11T17:56:35.890Z,10.30
2023-02-11T17:59:03.140Z,10.73
2023-02-11T18:01:31.385Z,11.20
2023-02-11T18:03:58.625Z,10.23
2023-02-11T18:06:26.075Z,9.57
2023-02-11T18:08:56.870Z,9.27
2023-02-11T18:11:25.927Z,9.93
2023-02-11T18:13:54.654Z,9.63
2023-02-11T18:16:22.383Z,9.43
2023-02-11T18:18:49.839Z,9.80
2023-02-11T18:21:18.600Z,8.97
2023-02-11T18:23:45.904Z,8.43
2023-02-11T18:26:14.036Z,9.70
2023-02-11T18:28:43.894Z,9.30
2023-02-11T18:31:13.898Z,9.33
2023-02-11T18:33:41.651Z,9.67
2023-02-11T18:36:10.455Z,10.03
2023-02-11T18:38:37.690Z,9.27
2023-02-11T18:41:05.370Z,8.63
2023-02-11T18:43:34.318Z,8.83
2023-02-11T18:46:02.677Z,10.10
2023-02-11T18:48:30.139Z,9.50
2023-02-11T18:50:57.426Z,11.40
2023-02-11T18:53:25.184Z,11.33
2023-02-11T18:55:53.730Z,10.13
2023-02-11T18:58:21.385Z,9.20
2023-02-11T19:00:49.325Z,8.80
2023-02-11T19:03:16.877Z,9.70
2023-02-11T19:05:44.047Z,9.50
2023-02-11T19:08:11.516Z,10.73
2023-02-11T19:10:42.773Z,10.60
2023-02-11T19:13:10.343Z,10.33
2023-02-11T19:15:44.420Z,10.17
2023-02-11T19:18:12.465Z,9.60
2023-02-11T19:20:40.565Z,9.70
2023-02-11T19:23:07.867Z,8.90
2023-02-11T19:25:35.175Z,9.70
2023-02-11T19:28:03.328Z,9.63
2023-02-11T19:30:30.956Z,8.63
2023-02-11T19:32:58.376Z,14.40
2023-02-11T19:35:25.876Z,12.47
2023-02-11T19:37:53.092Z,11.33
2023-02-11T19:40:21.340Z,9.90
2023-02-11T19:42:48.671Z,13.47
2023-02-11T19:45:15.949Z,12.60
2023-02-11T19:47:43.221Z,12.87
2023-02-11T19:50:10.710Z,14.00
2023-02-11T19:52:38.593Z,9.10
2023-02-11T19:55:06.241Z,9.10
2023-02-11T19:57:33.508Z,9.57
2023-02-11T20:00:01.474Z,8.93
2023-02-11T20:02:29.293Z,9.30
2023-02-11T20:04:56.507Z,8.70
2023-02-11T20:07:23.764Z,8.67
2023-02-11T20:09:53.616Z,10.90
2023-02-11T20:12:20.990Z,8.47
2023-02-11T20:14:48.196Z,8.97
2023-02-11T20:17:15.417Z,10.43
2023-02-11T20:19:42.638Z,9.83
2023-02-11T20:22:09.828Z,9.67
2023-02-11T20:24:36.995Z,10.17
2023-02-11T20:27:04.222Z,8.73
2023-02-11T20:29:31.888Z,9.20
2023-02-11T20:31:59.342Z,9.40
2023-02-11T20:34:26.679Z,9.73
2023-02-11T20:36:54.819Z,8.83
2023-02-11T20:39:23.417Z,8.43
2023-02-11T20:41:51.514Z,8.20
2023-02-11T20:44:19.476Z,7.70
2023-02-11T20:46:46.977Z,8.30
2023-02-11T20:49:18.871Z,7.70
2023-02-11T20:51:46.407Z,7.67
2023-02-11T20:54:15.218Z,7.67
2023-02-11T20:56:42.690Z,7.80
2023-02-11T20:59:10.116Z,7.93
2023-02-11T21:01:42.212Z,7.57
2023-02-11T21:04:13.658Z,9.33
2023-02-11T21:06:45.367Z,13.03
2023-02-11T21:09:14.257Z,13.17
2023-02-11T21:11:41.643Z,11.67
2023-02-11T21:14:09.937Z,10.67
2023-02-11T21:16:37.262Z,9.97
2023-02-11T21:19:04.841Z,10.43
2023-02-11T21:21:32.064Z,10.90
2023-02-11T21:23:59.343Z,11.40
2023-02-11T21:26:26.919Z,10.43
2023-02-11T21:28:55.174Z,10.47
2023-02-11T21:31:22.507Z,9.97
2023-02-11T21:33:50.608Z,11.53
2023-02-11T21:36:18.351Z,10.67
2023-02-11T21:38:45.862Z,11.93
2023-02-11T21:41:13.087Z,9.40
2023-02-11T21:43:40.300Z,10.07
2023-02-11T21:46:11.256Z,9.20
2023-02-11T21:48:38.869Z,8.47
2023-02-11T21:51:10.707Z,8.27
2023-02-11T21:53:37.976Z,8.00
2023-02-11T21:56:05.195Z,6.83
2023-02-11T21:58:32.396Z,6.80
2023-02-11T22:00:59.778Z,6.07
2023-02-11T22:03:27.003Z,6.43
2023-02-11T22:05:54.473Z,6.60
2023-02-11T22:08:21.824Z,6.20
2023-02-11T22:10:48.985Z,5.87
2023-02-11T22:13:16.276Z,6.10
2023-02-11T22:15:43.498Z,6.50
2023-02-11T22:18:10.693Z,6.23
2023-02-11T22:20:37.886Z,6.13
2023-02-11T22:23:05.204Z,6.10
2023-02-11T22:25:32.392Z,5.37
2023-02-11T22:27:59.604Z,5.50
2023-02-11T22:30:26.789Z,5.97
2023-02-11T22:32:54.160Z,5.70
2023-02-11T22:35:21.372Z,6.20
2023-02-11T22:37:48.604Z,5.57
2023-02-11T22:40:16.598Z,5.70
2023-02-11T22:42:43.781Z,5.30
2023-02-11T22:45:11.008Z,5.60
2023-02-11T22:47:38.906Z,5.63
2023-02-11T22:50:06.688Z,5.43
2023-02-11T22:52:35.438Z,5.77
2023-02-11T22:55:02.788Z,6.00
2023-02-11T22:57:30.021Z,6.87
2023-02-11T22:59:57.209Z,6.90
2023-02-11T23:02:24.455Z,6.20
2023-02-11T23:04:51.655Z,6.47
2023-02-11T23:07:18.823Z,8.30
2023-02-11T23:09:46.042Z,7.73
2023-02-11T23:12:13.247Z,9.63
2023-02-11T23:14:40.610Z,9.23
2023-02-11T23:17:07.791Z,8.07
2023-02-11T23:19:34.956Z,8.33
2023-02-11T23:22:03.615Z,6.87
2023-02-11T23:24:32.010Z,6.43
2023-02-11T23:26:59.258Z,6.13
2023-02-11T23:29:26.500Z,7.53
2023-02-11T23:31:54.829Z,6.90
2023-02-11T23:34:25.577Z,8.87
2023-02-11T23:36:53.108Z,8.40
2023-02-11T23:39:20.325Z,9.27
2023-02-11T23:41:47.574Z,7.33
2023-02-11T23:44:14.826Z,8.97
2023-02-11T23:46:42.050Z,7.90
2023-02-11T23:49:09.452Z,7.20
2023-02-11T23:51:36.653Z,6.57
2023-02-11T23:54:03.891Z,5.47
2023-02-11T23:56:31.171Z,6.30
2023-02-11T23:58:59.343Z,6.17
